GENERAL EDWARD LAWRENCE LOGAN INTL

KBOS (BOS)
Boston, Massachusetts
Towered

Vatsim Metar:
KBOS 251754Z 09014KT 10SM FEW040 FEW250 12/05 A2995 RMK AO2 SLP141 T01170050 10128 20106 58007

No ATC Online

Traffic

Inbound:
Ident
Type
Name
ETA
Phase
ACA7606
T/B738/L
Sasha Moser
Taxiing In
AAL1621
B738/L
Jeremy Russell KMDH
18:36 Z
Descent
AAL5620
H/B748/L
Pete Locascio KDEN
20:25 Z
Cruse
UAL2360
B752/Z
Jacob Miller KTYR
21:40 Z
Cruse
DAL4522
H/B763/L
Jim Rose KCSG
23:20 Z
Descent

Outbound:
Ident
Type
Name
Destination
Phase
TC-JBA
B737/L
Bartu Yalcin
KJFK
Climb